Capitol Logistics 626


SKBO
El Nuevo Dorado International Airport
Bogota, CO
KMIA
Miami International Airport
Miami, US

Activity Log

Date Flight Route Aircraft Duration
01/05/2020 CPX626 UCA UA301 URSUS FLIPR5 B763 3h 33m

Route Details

Aircraft Information
Primary: Boeing 767-300BDSF
Backup: Not Available
Route Data
Distance: 1372nm
Sched. Duration: 3h 04m
Avg. Duration: 3h 33m (+29m)
Times Flown: 1
Recm'd Route: UCA UA301 URSUS FLIPR5
Planned Altitude: 34,000ft
Origin Wx: SKBO 272300Z 33008KT 9000 VCSH SCT017CB BKN070 16/11 A3031 NOSIG RMK CB VCSH/S/SW
Dest. Wx: KMIA 272253Z 34006KT 10SM FEW040 SCT160 19/04 A3014 RMK AO2 SLP207 T01890044
Notes:

Financial History
Total Freight: 81,710lbs
Average Load: 81,710lbs/flt
Fuel Used: 35,165lbs
Avg. Fuel Used: 35,165lbs/flt
Fuel Expense: $28,132
Avg. Fuel Expense: $28,132
Avg. Fuel Cost: $0.80/lbs
Total Gross Income: $171,591
Pilot Pay: $99
Total Expenses: $18,584
Total Revenue: $124,545
Average Revenue: $171,591.00